< < Back
Terminal Aerodrome Forecast


Current Version              Previous Versions:   1  2  3  4  5  6  7  8  9  

Terminal Aerodrome Forecast

144
FTUS42 KFFC 020900 AAB
TAFATL
TAF AMD
KATL 020957Z 0210/0312 VRB03KT P6SM FEW150
     FM021400 24004KT P6SM SCT035 SCT150
     FM021800 27006KT P6SM SCT050 SCT150 PROB30 0219/0223 VRB15G30KT
      5SM TSRA BKN045CB
     FM030100 VRB03KT P6SM FEW050 BKN120=

Latest METAR

054
SAUS70 KWBC 021000 RRA
MTRATL
METAR KATL 020952Z 29007KT 10SM FEW150 22/21 A3009 RMK AO2 SLP181
T02220206


USA.gov is the U.S. government's official web portal to all federal, state and local government web resources and services.